Time;durP1;ratioP1;P1;durP2;ratioP2;P2;SDS_P1;SDS_P2;PMS_P1;PMS_P2;Temp;Humidity;BMP_temperature;BMP_pressure;BME280_temperature;BME280_humidity;BME280_pressure;Samples;Min_cycle;Max_cycle;Signal;HPM_P1;HPM_P2
2022/04/01 00:00:12;;;;;;;16.33;10.15;;;5.40;99.90;;;;;;5052010;28;20021;-49
2022/04/01 00:02:38;;;;;;;19.73;11.48;;;5.40;99.90;;;;;;5052340;28;20025;-54
2022/04/01 00:05:06;;;;;;;15.20;9.85;;;5.30;99.90;;;;;;5051826;28;20028;-55
2022/04/01 00:07:32;;;;;;;17.60;10.57;;;5.40;99.90;;;;;;5052893;28;20033;-53
2022/04/01 00:09:58;;;;;;;16.15;10.35;;;5.50;99.90;;;;;;5052564;28;20032;-49
2022/04/01 00:12:24;;;;;;;15.73;10.40;;;5.40;99.90;;;;;;5054355;28;20033;-56
2022/04/01 00:14:50;;;;;;;17.35;10.15;;;5.40;99.90;;;;;;5055143;28;20021;-54
2022/04/01 00:17:15;;;;;;;18.98;11.15;;;5.50;99.90;;;;;;5055336;28;20028;-54
2022/04/01 00:19:41;;;;;;;19.13;10.88;;;5.40;99.90;;;;;;5055855;28;20120;-54
2022/04/01 00:22:06;;;;;;;19.88;10.88;;;5.30;99.90;;;;;;5054885;28;20025;-53
2022/04/01 00:24:33;;;;;;;18.85;10.75;;;5.20;99.90;;;;;;5055450;28;20028;-50
2022/04/01 00:26:59;;;;;;;17.00;9.80;;;5.40;99.90;;;;;;5055167;28;20033;-49
2022/04/01 00:29:25;;;;;;;16.08;9.88;;;5.30;99.90;;;;;;5054837;28;20095;-54
2022/04/01 00:32:01;;;;;;;13.00;8.15;;;5.40;99.90;;;;;;5054818;28;20067;-54
2022/04/01 00:34:32;;;;;;;21.35;11.18;;;5.60;99.90;;;;;;5054748;28;20028;-54
2022/04/01 00:37:00;;;;;;;17.48;10.00;;;5.20;99.90;;;;;;5055986;28;20025;-52
2022/04/01 00:39:29;;;;;;;17.58;10.18;;;5.20;99.90;;;;;;5056165;28;20039;-54
2022/04/01 00:41:56;;;;;;;17.70;10.10;;;5.20;99.90;;;;;;5056039;28;20025;-51
2022/04/01 00:44:24;;;;;;;16.70;10.27;;;5.20;99.90;;;;;;5055806;28;20032;-54
2022/04/01 00:46:53;;;;;;;17.17;10.27;;;4.80;99.90;;;;;;5054404;28;20024;-53
2022/04/01 00:49:20;;;;;;;14.98;9.98;;;4.60;99.90;;;;;;5055386;28;20017;-53
2022/04/01 00:51:48;;;;;;;16.63;10.73;;;4.80;99.90;;;;;;5055134;28;20017;-54
2022/04/01 00:54:14;;;;;;;14.65;9.32;;;4.80;99.90;;;;;;5055112;28;20100;-53
2022/04/01 00:56:40;;;;;;;15.95;10.13;;;4.90;99.90;;;;;;5055007;28;20109;-53
2022/04/01 00:59:08;;;;;;;14.88;9.25;;;4.90;99.90;;;;;;5054012;28;20021;-53
2022/04/01 01:01:35;;;;;;;15.73;9.15;;;4.90;99.90;;;;;;5054445;28;20160;-53
2022/04/01 01:04:03;;;;;;;16.35;9.48;;;4.90;99.90;;;;;;5054271;28;20025;-54
2022/04/01 01:06:31;;;;;;;13.45;9.63;;;4.90;99.90;;;;;;5054382;28;20025;-56
2022/04/01 01:08:58;;;;;;;13.88;8.85;;;4.80;99.90;;;;;;5054103;28;20101;-54
2022/04/01 01:11:25;;;;;;;13.07;9.15;;;4.70;99.90;;;;;;5053953;28;20029;-52
2022/04/01 01:13:52;;;;;;;13.85;9.07;;;4.60;99.90;;;;;;5054922;28;20025;-55
2022/04/01 01:16:19;;;;;;;12.45;8.23;;;4.70;99.90;;;;;;5053995;28;20024;-54
2022/04/01 01:18:45;;;;;;;13.30;8.05;;;4.90;99.90;;;;;;5054291;28;20160;-51
2022/04/01 01:21:11;;;;;;;11.70;7.03;;;5.00;99.90;;;;;;5055047;28;20021;-53
2022/04/01 01:23:41;;;;;;;13.93;8.95;;;5.10;99.90;;;;;;5054584;28;20021;-52
2022/04/01 01:26:07;;;;;;;12.48;8.68;;;5.00;99.90;;;;;;5053805;28;20033;-53
2022/04/01 01:28:33;;;;;;;11.43;7.60;;;5.00;99.90;;;;;;5053946;28;20031;-55
2022/04/01 01:30:59;;;;;;;11.73;8.65;;;5.20;99.90;;;;;;5054860;28;20055;-54
2022/04/01 01:33:25;;;;;;;13.52;8.35;;;4.90;99.90;;;;;;5053604;28;20025;-55
2022/04/01 01:35:51;;;;;;;11.55;7.82;;;5.00;99.90;;;;;;5053579;28;20032;-56
2022/04/01 01:38:18;;;;;;;14.90;9.40;;;5.00;99.90;;;;;;5053511;28;20029;-52
2022/04/01 01:40:45;;;;;;;12.48;8.10;;;4.80;99.90;;;;;;5053770;28;20056;-54
2022/04/01 01:43:10;;;;;;;14.75;9.20;;;4.80;99.90;;;;;;5053441;28;20028;-55
2022/04/01 01:45:36;;;;;;;11.55;8.15;;;4.90;99.90;;;;;;5053472;28;20029;-55
2022/04/01 01:48:02;;;;;;;15.15;9.32;;;4.90;99.90;;;;;;5053350;28;20021;-55
2022/04/01 01:55:55;;;;;;;10.93;7.70;;;5.00;99.90;;;;;;5055108;28;20063;-54
2022/04/01 01:58:21;;;;;;;14.38;8.45;;;5.10;99.90;;;;;;5053030;28;20037;-53
2022/04/01 02:00:47;;;;;;;10.95;6.65;;;5.30;99.90;;;;;;5052942;28;20028;-54
2022/04/01 02:03:12;;;;;;;11.70;6.72;;;5.50;99.90;;;;;;5054013;28;20163;-54
2022/04/01 02:05:38;;;;;;;13.60;8.38;;;5.60;99.90;;;;;;5054326;28;20029;-54
2022/04/01 02:08:05;;;;;;;10.07;7.55;;;5.40;99.90;;;;;;5054438;28;20025;-53
2022/04/01 02:10:32;;;;;;;11.75;7.60;;;5.20;99.90;;;;;;5052978;28;20021;-53
2022/04/01 02:12:58;;;;;;;12.18;8.05;;;4.70;99.90;;;;;;5053232;28;20032;-54
2022/04/01 02:15:25;;;;;;;13.68;8.13;;;4.90;99.90;;;;;;5052805;28;20098;-51
2022/04/01 02:17:50;;;;;;;16.15;8.85;;;4.90;99.90;;;;;;5052785;28;20025;-54
2022/04/01 02:20:17;;;;;;;10.93;7.40;;;4.70;99.90;;;;;;5053875;28;20063;-53
2022/04/01 02:22:44;;;;;;;10.65;6.90;;;4.80;99.90;;;;;;5053898;28;20483;-51
2022/04/01 02:25:11;;;;;;;13.70;7.90;;;4.90;99.90;;;;;;5054231;28;20021;-51
2022/04/01 02:27:37;;;;;;;11.10;7.35;;;4.60;99.90;;;;;;5052773;28;20025;-55
2022/04/01 02:30:11;;;;;;;13.13;7.43;;;4.70;99.90;;;;;;5052503;28;20047;-55
2022/04/01 02:32:39;;;;;;;11.07;6.68;;;4.80;99.90;;;;;;5054021;28;20024;-55
2022/04/01 02:35:05;;;;;;;10.45;6.68;;;5.10;99.90;;;;;;5053021;28;20017;-51
2022/04/01 02:37:31;;;;;;;13.45;8.23;;;5.10;99.90;;;;;;5052424;28;20021;-54
2022/04/01 02:39:57;;;;;;;12.88;7.60;;;4.60;99.90;;;;;;5052698;28;20056;-55
2022/04/01 02:42:23;;;;;;;12.85;7.75;;;4.50;99.90;;;;;;5052396;28;20067;-55
2022/04/01 02:44:49;;;;;;;10.38;6.50;;;4.30;99.90;;;;;;5053884;28;20099;-52
2022/04/01 02:47:14;;;;;;;11.50;6.50;;;4.30;99.90;;;;;;5052259;28;20071;-52
2022/04/01 02:49:40;;;;;;;11.40;7.40;;;4.50;99.90;;;;;;5052176;28;20112;-53
2022/04/01 02:52:06;;;;;;;11.88;7.28;;;4.60;99.90;;;;;;5052460;28;20497;-53
2022/04/01 02:54:33;;;;;;;11.40;7.03;;;4.50;99.90;;;;;;5053437;28;20025;-56
2022/04/01 02:56:59;;;;;;;11.50;7.28;;;4.30;99.90;;;;;;5053414;28;20025;-53
2022/04/01 02:59:25;;;;;;;12.10;7.57;;;4.10;99.90;;;;;;5053642;28;20025;-54
2022/04/01 03:01:51;;;;;;;9.63;6.95;;;4.00;99.90;;;;;;5053285;28;20017;-52
2022/04/01 03:04:17;;;;;;;11.73;6.53;;;4.10;99.90;;;;;;5052252;28;20475;-55
2022/04/01 03:06:43;;;;;;;11.25;7.18;;;4.00;99.90;;;;;;5051867;28;20028;-56
2022/04/01 03:09:10;;;;;;;10.50;7.10;;;3.80;99.90;;;;;;5051977;28;20021;-54
2022/04/01 03:11:36;;;;;;;11.63;8.02;;;3.80;99.90;;;;;;5051752;28;20029;-53
2022/04/01 03:14:03;;;;;;;17.88;10.18;;;3.90;99.90;;;;;;5051903;28;20025;-56
2022/04/01 03:16:29;;;;;;;12.05;6.75;;;4.00;99.90;;;;;;5053116;28;20502;-55
2022/04/01 03:18:57;;;;;;;8.82;6.55;;;4.00;99.90;;;;;;5051829;28;20063;-51
2022/04/01 03:21:26;;;;;;;10.77;7.32;;;4.20;99.90;;;;;;5053150;28;20051;-56
2022/04/01 03:23:52;;;;;;;13.50;7.13;;;4.00;99.90;;;;;;5052641;28;20032;-53
2022/04/01 03:26:20;;;;;;;11.65;7.20;;;4.10;99.90;;;;;;5051818;28;20112;-53
2022/04/01 03:28:46;;;;;;;14.20;7.82;;;4.00;99.90;;;;;;5053323;28;20108;-52
2022/04/01 03:31:14;;;;;;;14.20;8.25;;;3.90;99.90;;;;;;5051707;28;20024;-54
2022/04/01 03:33:41;;;;;;;12.20;6.85;;;3.60;99.90;;;;;;5051759;28;20049;-55
2022/04/01 03:36:08;;;;;;;13.88;8.35;;;3.50;99.90;;;;;;5051956;28;20123;-55
2022/04/01 03:38:34;;;;;;;13.85;8.02;;;3.70;99.90;;;;;;5052958;28;20025;-55
2022/04/01 03:41:01;;;;;;;14.52;7.28;;;3.70;99.90;;;;;;5052831;28;20025;-51
2022/04/01 03:43:28;;;;;;;10.52;6.78;;;3.80;99.90;;;;;;5053194;28;20025;-54
2022/04/01 03:45:54;;;;;;;12.57;7.78;;;3.90;99.90;;;;;;5052617;28;20390;-53
2022/04/01 03:48:37;;;;;;;13.00;7.03;;;3.90;99.90;;;;;;5056838;28;20027;-54
2022/04/01 03:51:04;;;;;;;10.88;7.07;;;3.90;99.90;;;;;;5055840;28;20020;-51
2022/04/01 03:53:31;;;;;;;12.65;7.68;;;3.70;99.90;;;;;;5055522;28;20021;-54
2022/04/01 03:55:59;;;;;;;11.32;6.88;;;3.60;99.90;;;;;;5056683;28;20089;-54
2022/04/01 03:58:33;;;;;;;13.27;7.63;;;3.70;99.90;;;;;;5055720;28;20052;-53
2022/04/01 04:01:01;;;;;;;16.13;7.97;;;3.80;99.90;;;;;;5055291;28;20502;-53
2022/04/01 04:03:33;;;;;;;14.95;7.50;;;3.80;99.90;;;;;;5055633;28;20036;-54
2022/04/01 04:06:00;;;;;;;13.30;7.45;;;3.60;99.90;;;;;;5055254;28;20021;-53
2022/04/01 04:08:26;;;;;;;14.82;7.40;;;3.60;99.90;;;;;;5056618;28;20116;-55
2022/04/01 04:10:53;;;;;;;10.45;6.95;;;3.80;99.90;;;;;;5054946;28;20117;-53
2022/04/01 04:13:25;;;;;;;13.75;7.57;;;3.90;99.90;;;;;;5055273;28;20074;-54
2022/04/01 04:16:00;;;;;;;;;;;3.50;99.90;;;;;;5057240;28;20088;-55
2022/04/01 04:18:37;;;;;;;13.57;7.43;;;3.40;99.90;;;;;;5057082;28;19909;-53
2022/04/01 04:21:10;;;;;;;18.42;7.60;;;3.40;99.90;;;;;;5055109;28;20029;-54
2022/04/01 04:23:50;;;;;;;11.13;6.15;;;3.50;99.90;;;;;;5054951;28;20024;-55
2022/04/01 04:26:30;;;;;;;13.23;7.20;;;3.80;99.90;;;;;;5054982;28;20032;-53
2022/04/01 04:29:10;;;;;;;13.23;7.35;;;3.80;99.90;;;;;;5056180;28;20029;-54
2022/04/01 04:31:37;;;;;;;16.15;6.60;;;3.80;99.90;;;;;;5054745;28;20029;-50
2022/04/01 04:34:08;;;;;;;16.95;7.28;;;3.80;99.90;;;;;;5054797;28;20028;-54
2022/04/01 04:36:39;;;;;;;14.18;7.53;;;3.80;99.90;;;;;;5056028;28;20022;-54
2022/04/01 04:39:10;;;;;;;14.73;7.18;;;3.50;99.90;;;;;;5056605;28;20024;-55
2022/04/01 04:41:35;;;;;;;13.10;7.75;;;3.40;99.90;;;;;;5054552;28;20025;-53
2022/04/01 04:44:01;;;;;;;10.30;6.22;;;3.20;99.90;;;;;;5054623;28;20024;-55
2022/04/01 04:46:28;;;;;;;11.50;7.07;;;3.40;99.90;;;;;;5054457;28;20028;-52
2022/04/01 04:48:54;;;;;;;11.70;7.22;;;3.50;99.90;;;;;;5055688;28;20059;-51
2022/04/01 04:51:30;;;;;;;11.32;6.82;;;3.30;99.90;;;;;;5054321;28;20025;-53
2022/04/01 04:54:00;;;;;;;12.73;7.53;;;3.30;99.90;;;;;;5054403;28;20044;-51
2022/04/01 04:56:27;;;;;;;12.10;6.93;;;3.10;99.90;;;;;;5054361;28;20021;-50
2022/04/01 04:58:55;;;;;;;9.10;6.53;;;3.20;99.90;;;;;;5054689;28;20017;-50
2022/04/01 05:02:06;;;;;;;10.25;6.57;;;3.20;99.90;;;;;;5055597;28;20021;-51
2022/04/01 05:05:05;;;;;;;11.55;7.35;;;3.20;99.90;;;;;;5018946;28;20051;-51
2022/04/01 05:07:52;;;;;;;11.57;7.07;;;3.30;99.90;;;;;;5055579;28;20109;-49
2022/04/01 05:10:26;;;;;;;11.30;6.88;;;3.50;99.90;;;;;;5055426;28;20033;-53
2022/04/01 05:13:30;;;;;;;10.48;6.07;;;3.30;99.90;;;;;;5054361;28;20063;-49
2022/04/01 05:16:05;;;;;;;12.35;7.50;;;3.30;99.90;;;;;;5055507;28;20048;-51
2022/04/01 05:18:53;;;;;;;12.02;6.25;;;3.30;99.90;;;;;;5055266;28;20032;-49
2022/04/01 05:21:22;;;;;;;11.20;6.80;;;3.30;99.90;;;;;;5055264;28;20073;-49
2022/04/01 05:24:01;;;;;;;13.75;7.55;;;3.20;99.90;;;;;;5054122;28;20025;-51
2022/04/01 05:26:40;;;;;;;13.15;7.80;;;2.90;99.90;;;;;;5053767;28;20115;-49
2022/04/01 05:29:13;;;;;;;14.57;7.20;;;3.00;99.90;;;;;;5055834;28;20029;-49
2022/04/01 05:32:05;;;;;;;14.07;7.53;;;3.20;99.90;;;;;;5054987;28;20029;-49
2022/04/01 05:34:34;;;;;;;13.10;7.45;;;3.10;99.90;;;;;;5055206;28;20017;-49
2022/04/01 05:37:01;;;;;;;11.90;7.57;;;3.00;99.90;;;;;;5053612;28;20025;-49
2022/04/01 05:39:28;;;;;;;12.95;7.45;;;3.10;99.90;;;;;;5053999;28;20025;-48
2022/04/01 05:41:54;;;;;;;12.55;6.80;;;3.10;99.90;;;;;;5054624;28;20021;-49
2022/04/01 05:44:21;;;;;;;11.98;7.50;;;2.90;99.90;;;;;;5053500;28;20021;-49
2022/04/01 05:46:49;;;;;;;14.27;8.48;;;2.90;99.90;;;;;;5054071;28;20035;-48
2022/04/01 05:49:16;;;;;;;11.90;7.05;;;2.90;99.90;;;;;;5054570;28;20018;-50
2022/04/01 05:51:42;;;;;;;10.60;6.38;;;2.80;99.90;;;;;;5054741;28;20078;-49
2022/04/01 05:54:09;;;;;;;11.65;6.50;;;2.70;99.90;;;;;;5053224;28;20025;-48
2022/04/01 05:56:37;;;;;;;14.02;7.78;;;2.80;99.90;;;;;;5053462;28;20120;-51
2022/04/01 05:59:03;;;;;;;10.00;6.68;;;2.60;99.90;;;;;;5054013;28;20017;-50
2022/04/01 06:02:03;;;;;;;10.75;6.13;;;2.70;99.90;;;;;;5053338;28;20028;-51
2022/04/01 06:05:09;;;;;;;10.95;6.90;;;2.80;99.90;;;;;;5054165;28;20017;-50
2022/04/01 06:07:38;;;;;;;11.38;6.63;;;3.00;99.90;;;;;;5015005;28;20033;-48
2022/04/01 06:10:09;;;;;;;15.63;6.97;;;2.80;99.90;;;;;;5054176;28;20021;-50
2022/04/01 06:13:13;;;;;;;11.23;7.18;;;2.90;99.90;;;;;;5052925;28;20063;-51
2022/04/01 06:15:47;;;;;;;17.30;8.07;;;2.90;99.90;;;;;;5054051;28;20104;-50
2022/04/01 06:18:37;;;;;;;11.05;6.95;;;2.90;99.90;;;;;;5052796;28;20082;-50
2022/04/01 06:21:04;;;;;;;12.95;6.85;;;3.00;99.90;;;;;;5053967;28;20031;-52
2022/04/01 06:24:14;;;;;;;11.38;6.72;;;3.20;99.90;;;;;;5054001;28;20029;-54
2022/04/01 06:26:47;;;;;;;9.68;5.95;;;3.40;99.90;;;;;;5053029;28;20064;-52
2022/04/01 06:29:35;;;;;;;9.32;5.78;;;3.40;99.90;;;;;;5053889;28;20048;-52
2022/04/01 06:32:20;;;;;;;10.68;6.65;;;3.30;99.90;;;;;;5052572;28;20071;-49
2022/04/01 06:34:46;;;;;;;12.05;6.03;;;3.40;99.90;;;;;;5052558;28;20031;-52
2022/04/01 06:37:22;;;;;;;12.60;6.28;;;3.30;99.90;;;;;;5052716;28;20020;-50
2022/04/01 06:40:14;;;;;;;13.38;6.53;;;3.40;99.90;;;;;;5052400;28;20040;-49
2022/04/01 06:42:41;;;;;;;14.98;6.35;;;3.30;99.90;;;;;;5052946;28;20025;-50
2022/04/01 06:45:09;;;;;;;10.38;5.97;;;3.10;99.90;;;;;;5052281;28;20033;-51
2022/04/01 06:47:40;;;;;;;12.38;6.97;;;2.90;99.90;;;;;;5053461;28;20029;-49
2022/04/01 06:50:06;;;;;;;11.82;5.57;;;3.10;99.90;;;;;;5052281;28;20115;-49
2022/04/01 06:52:32;;;;;;;14.02;6.80;;;3.00;99.90;;;;;;5052160;28;20028;-49
2022/04/01 06:54:58;;;;;;;11.73;5.80;;;3.30;99.90;;;;;;5052195;28;20024;-50
2022/04/01 06:57:24;;;;;;;9.63;5.70;;;3.40;99.90;;;;;;5053493;28;20064;-48
2022/04/01 06:59:50;;;;;;;10.57;6.15;;;3.20;99.90;;;;;;5052122;28;20025;-52
2022/04/01 07:02:16;;;;;;;12.68;7.05;;;3.30;99.90;;;;;;5052041;28;20079;-51
2022/04/01 07:04:42;;;;;;;13.02;6.50;;;3.30;99.90;;;;;;5052883;28;20033;-49
2022/04/01 07:07:08;;;;;;;14.25;6.60;;;3.30;99.90;;;;;;5051927;28;20075;-52
2022/04/01 07:09:35;;;;;;;11.23;6.43;;;3.10;99.90;;;;;;5052042;28;20046;-51
2022/04/01 07:12:01;;;;;;;15.45;6.20;;;3.20;99.90;;;;;;5053066;28;20052;-49
2022/04/01 07:14:33;;;;;;;11.13;6.80;;;3.30;99.90;;;;;;5053483;28;20017;-49
2022/04/01 07:16:59;;;;;;;;;;;3.20;99.90;;;;;;5053576;28;20025;-52
2022/04/01 07:19:25;;;;;;;12.15;6.13;;;3.10;99.90;;;;;;5053132;28;20339;-49
2022/04/01 07:21:50;;;;;;;10.18;5.88;;;3.00;99.90;;;;;;5052732;28;20032;-50
2022/04/01 07:24:16;;;;;;;8.88;5.50;;;3.00;99.90;;;;;;5052914;28;20032;-49
2022/04/01 07:26:44;;;;;;;11.75;6.57;;;3.20;99.90;;;;;;5053059;28;20031;-50
2022/04/01 07:29:11;;;;;;;15.55;6.90;;;2.90;99.90;;;;;;5051817;28;20552;-50
2022/04/01 07:34:34;;;;;;;15.57;7.47;;;3.00;99.90;;;;;;5053588;28;20037;-49
2022/04/01 07:37:00;;;;;;;13.63;6.40;;;3.30;99.90;;;;;;5053033;28;20029;-50
2022/04/01 07:39:26;;;;;;;12.68;6.05;;;3.10;99.90;;;;;;5051619;28;20074;-49
2022/04/01 07:41:52;;;;;;;10.82;5.85;;;3.30;99.90;;;;;;5051792;28;20525;-51
2022/04/01 07:44:18;;;;;;;12.98;7.03;;;3.20;99.90;;;;;;5051370;28;20021;-50
2022/04/01 07:46:43;;;;;;;12.95;6.63;;;3.10;99.90;;;;;;5051420;28;20025;-49
2022/04/01 07:49:09;;;;;;;10.05;5.88;;;3.30;99.90;;;;;;5052471;28;20017;-50
2022/04/01 07:51:35;;;;;;;9.63;5.78;;;3.30;99.90;;;;;;5052742;28;20028;-50
2022/04/01 07:54:01;;;;;;;13.05;6.78;;;3.40;99.90;;;;;;5053649;28;20023;-49
2022/04/01 07:56:30;;;;;;;9.02;6.32;;;3.50;99.90;;;;;;5051661;28;20027;-53
2022/04/01 07:58:57;;;;;;;7.78;5.18;;;3.40;99.90;;;;;;5051443;28;20104;-51
2022/04/01 08:01:23;;;;;;;8.38;5.25;;;3.60;99.90;;;;;;5051345;28;20025;-51
2022/04/01 08:03:49;;;;;;;10.00;6.50;;;3.30;99.90;;;;;;5051369;28;20017;-51
2022/04/01 08:06:14;;;;;;;10.27;5.90;;;3.30;99.90;;;;;;5052803;28;20021;-51
2022/04/01 08:08:40;;;;;;;10.75;6.45;;;3.10;99.90;;;;;;5051511;28;20380;-51
2022/04/01 08:11:06;;;;;;;11.82;5.95;;;3.20;99.90;;;;;;5052580;28;20029;-49
2022/04/01 08:13:33;;;;;;;10.85;5.53;;;3.30;99.90;;;;;;5052605;28;20079;-52
2022/04/01 08:15:59;;;;;;;13.10;6.47;;;3.40;99.90;;;;;;5052531;28;20028;-50
2022/04/01 08:18:25;;;;;;;11.32;5.80;;;3.40;99.90;;;;;;5051326;28;20025;-50
2022/04/01 08:20:51;;;;;;;7.50;5.40;;;3.20;99.90;;;;;;5051120;28;20471;-50
2022/04/01 08:23:16;;;;;;;8.65;5.68;;;3.40;99.90;;;;;;5052801;28;20036;-52
2022/04/01 08:25:42;;;;;;;7.93;4.80;;;3.40;99.90;;;;;;5052763;28;20028;-55
2022/04/01 08:28:08;;;;;;;10.02;5.70;;;3.20;99.90;;;;;;5052356;28;20025;-50
2022/04/01 08:30:41;;;;;;;15.18;6.03;;;3.20;99.90;;;;;;5052513;28;20017;-48
2022/04/01 08:33:07;;;;;;;8.80;6.05;;;3.20;99.90;;;;;;5054031;28;20080;-50
2022/04/01 08:35:33;;;;;;;7.68;4.97;;;3.20;99.90;;;;;;5054752;28;20052;-51
2022/04/01 08:38:00;;;;;;;11.23;6.13;;;3.30;99.90;;;;;;5055010;28;20052;-49
2022/04/01 08:40:27;;;;;;;8.20;5.22;;;3.10;99.90;;;;;;5054653;28;20094;-49
2022/04/01 08:42:52;;;;;;;11.80;6.15;;;3.20;99.90;;;;;;5055914;28;20028;-51
2022/04/01 08:45:20;;;;;;;10.13;6.10;;;3.30;99.90;;;;;;5054581;28;20025;-51
2022/04/01 08:47:47;;;;;;;11.52;5.20;;;3.40;99.90;;;;;;5055835;28;20032;-53
2022/04/01 08:50:13;;;;;;;9.15;5.32;;;3.50;99.90;;;;;;5054480;28;20021;-52
2022/04/01 08:52:38;;;;;;;7.68;4.85;;;3.30;99.90;;;;;;5055709;28;20025;-53
2022/04/01 08:55:06;;;;;;;9.65;5.47;;;3.70;99.90;;;;;;5055626;28;20025;-51
2022/04/01 08:57:39;;;;;;;7.57;4.95;;;3.60;99.90;;;;;;5055557;28;20067;-52
2022/04/01 09:00:11;;;;;;;9.15;4.90;;;3.40;99.90;;;;;;5055556;28;20032;-49
2022/04/01 09:02:37;;;;;;;7.65;4.82;;;3.50;99.90;;;;;;5054738;28;20049;-49
2022/04/01 09:05:04;;;;;;;9.95;5.32;;;3.40;99.90;;;;;;5056169;28;20126;-48
2022/04/01 09:07:29;;;;;;;10.35;5.35;;;3.30;99.90;;;;;;5054164;28;20024;-55
2022/04/01 09:10:04;;;;;;;10.27;4.93;;;3.40;99.90;;;;;;5055492;28;20091;-49
2022/04/01 09:12:30;;;;;;;8.68;5.30;;;3.30;99.90;;;;;;5054055;28;20033;-50
2022/04/01 09:14:57;;;;;;;9.43;5.60;;;3.10;99.90;;;;;;5055476;28;20025;-54
2022/04/01 09:17:43;;;;;;;8.55;5.20;;;3.30;99.90;;;;;;5054291;28;20025;-50
2022/04/01 09:20:10;;;;;;;8.10;5.38;;;3.20;99.90;;;;;;5054002;28;20033;-52
2022/04/01 09:22:38;;;;;;;10.07;5.88;;;3.30;99.90;;;;;;5055142;28;20036;-50
2022/04/01 09:25:16;;;;;;;10.10;5.55;;;3.50;99.90;;;;;;5053952;28;20047;-52
2022/04/01 09:27:51;;;;;;;8.10;5.13;;;3.70;99.90;;;;;;5055072;28;20025;-49
2022/04/01 09:30:23;;;;;;;5.70;4.13;;;3.80;99.90;;;;;;5054007;28;20049;-50
2022/04/01 09:32:51;;;;;;;7.00;4.15;;;3.70;99.90;;;;;;5055004;28;20017;-51
2022/04/01 09:35:20;;;;;;;6.13;4.43;;;3.50;99.90;;;;;;5053644;28;20029;-50
2022/04/01 09:37:48;;;;;;;5.82;3.35;;;3.80;99.90;;;;;;5054872;28;20025;-52
2022/04/01 09:40:21;;;;;;;7.25;4.30;;;3.80;99.90;;;;;;5054462;28;20082;-49
2022/04/01 09:42:55;;;;;;;6.03;4.30;;;3.80;99.90;;;;;;5054401;28;20031;-52
2022/04/01 09:45:25;;;;;;;7.40;4.10;;;3.90;99.90;;;;;;5054114;28;20100;-55
2022/04/01 09:48:05;;;;;;;6.47;4.90;;;3.70;99.90;;;;;;5054580;28;20029;-49
2022/04/01 09:50:37;;;;;;;5.28;3.75;;;3.80;99.90;;;;;;5053705;28;20115;-49
2022/04/01 09:53:16;;;;;;;6.68;4.03;;;4.10;99.90;;;;;;5053305;28;20025;-49
2022/04/01 09:55:47;;;;;;;6.32;4.13;;;4.40;99.90;;;;;;5053225;28;20021;-49
2022/04/01 09:58:15;;;;;;;6.88;4.07;;;4.20;99.90;;;;;;5054041;28;20114;-47
2022/04/01 10:00:41;;;;;;;5.57;3.65;;;4.10;99.90;;;;;;5054194;28;20044;-49
2022/04/01 10:03:08;;;;;;;11.32;4.63;;;4.10;99.90;;;;;;5054544;28;20035;-49
2022/04/01 10:05:35;;;;;;;8.07;3.85;;;3.90;99.90;;;;;;5054160;28;20036;-51
2022/04/01 10:08:06;;;;;;;5.93;3.97;;;3.60;99.90;;;;;;5054423;28;20032;-55
2022/04/01 10:10:32;;;;;;;6.72;3.83;;;3.40;99.90;;;;;;5053453;28;20025;-52
2022/04/01 10:13:05;;;;;;;5.85;3.88;;;3.40;99.90;;;;;;5052971;28;20044;-57
2022/04/01 10:15:32;;;;;;;7.30;4.10;;;3.40;99.90;;;;;;5054403;28;20049;-51
2022/04/01 10:17:59;;;;;;;5.43;3.65;;;3.60;99.90;;;;;;5052671;28;20111;-54
2022/04/01 10:20:33;;;;;;;5.40;3.20;;;3.60;99.90;;;;;;5052764;28;20040;-56
2022/04/01 10:23:08;;;;;;;4.97;2.75;;;4.00;99.90;;;;;;5053877;28;20017;-50
2022/04/01 10:25:37;;;;;;;4.07;3.00;;;4.10;99.90;;;;;;5052603;28;20025;-56
2022/04/01 10:28:04;;;;;;;4.32;3.53;;;4.20;99.90;;;;;;5052503;28;20029;-58
2022/04/01 10:30:32;;;;;;;5.03;3.30;;;4.10;99.90;;;;;;5053943;28;20039;-54
2022/04/01 10:32:58;;;;;;;5.90;3.65;;;3.90;99.90;;;;;;5052778;28;20049;-51
2022/04/01 10:35:26;;;;;;;7.32;3.78;;;3.70;99.90;;;;;;5053433;28;20032;-57
2022/04/01 10:38:16;;;;;;;5.30;3.47;;;3.50;99.90;;;;;;5052485;28;20025;-49
2022/04/01 10:40:45;;;;;;;5.88;3.42;;;3.40;99.90;;;;;;5052026;28;20044;-49
2022/04/01 10:43:27;;;;;;;7.97;4.60;;;3.30;99.90;;;;;;5053682;28;20036;-52
2022/04/01 10:46:13;;;;;;;7.32;4.90;;;3.40;99.90;;;;;;5053949;28;20059;-48
2022/04/01 10:52:04;;;;;;;4.30;3.50;;;3.80;99.90;;;;;;5053551;28;20179;-48
2022/04/01 10:54:29;;;;;;;4.72;3.28;;;4.10;99.90;;;;;;5052906;28;20021;-53
2022/04/01 10:57:05;;;;;;;3.95;3.05;;;4.00;99.90;;;;;;5052131;28;20433;-48
2022/04/01 10:59:43;;;;;;;10.60;4.68;;;4.50;99.90;;;;;;5052150;28;20028;-49
2022/04/01 11:02:18;;;;;;;5.40;4.05;;;4.20;99.90;;;;;;5052186;28;20017;-53
2022/04/01 11:04:45;;;;;;;7.85;4.43;;;4.20;99.90;;;;;;5053703;28;20369;-49
2022/04/01 11:07:22;;;;;;;7.18;4.28;;;4.00;99.90;;;;;;5053583;28;20024;-51
2022/04/01 11:09:47;;;;;;;6.28;3.90;;;4.00;99.90;;;;;;5052000;28;20074;-49
2022/04/01 11:12:16;;;;;;;4.53;3.20;;;4.40;99.90;;;;;;5053162;28;20025;-52
2022/04/01 11:14:57;;;;;;;5.45;3.97;;;4.70;99.90;;;;;;5053303;28;20028;-50
2022/04/01 11:17:28;;;;;;;5.53;3.38;;;4.90;99.90;;;;;;5053278;28;20021;-49
2022/04/01 11:20:04;;;;;;;5.43;3.97;;;4.70;99.90;;;;;;5053182;28;20040;-52
2022/04/01 11:22:42;;;;;;;6.90;4.45;;;4.40;99.90;;;;;;5051800;28;20021;-47
2022/04/01 11:25:12;;;;;;;9.23;4.63;;;4.40;99.90;;;;;;5052076;28;20032;-46
2022/04/01 11:27:48;;;;;;;7.53;4.78;;;4.00;99.90;;;;;;5051764;28;20025;-49
2022/04/01 11:30:16;;;;;;;8.75;4.78;;;3.80;99.90;;;;;;5052637;28;20112;-49
2022/04/01 11:32:48;;;;;;;4.43;3.50;;;3.50;99.90;;;;;;5052045;28;20020;-47
2022/04/01 11:35:17;;;;;;;6.03;3.95;;;3.30;99.90;;;;;;5053425;28;20118;-52
2022/04/01 11:37:46;;;;;;;7.80;4.35;;;3.30;99.90;;;;;;5051800;28;20376;-49
2022/04/01 11:40:13;;;;;;;6.88;4.22;;;3.40;99.90;;;;;;5051932;28;20119;-49
2022/04/01 11:43:02;;;;;;;8.05;5.00;;;3.40;99.90;;;;;;5051692;28;20043;-49
2022/04/01 11:45:33;;;;;;;6.60;4.57;;;3.40;99.90;;;;;;5051765;28;20029;-51
2022/04/01 11:47:59;;;;;;;8.02;4.03;;;3.40;99.90;;;;;;5051607;28;20021;-53
2022/04/01 11:50:25;;;;;;;9.05;4.63;;;3.40;99.90;;;;;;5053045;28;20043;-52
2022/04/01 11:52:55;;;;;;;5.13;3.88;;;3.30;99.90;;;;;;5051759;28;20375;-53
2022/04/01 11:55:23;;;;;;;7.32;4.20;;;3.20;99.90;;;;;;5052595;28;20021;-54
2022/04/01 11:57:53;;;;;;;6.45;4.38;;;3.50;99.90;;;;;;5051401;28;20025;-50
2022/04/01 12:00:21;;;;;;;6.25;4.32;;;3.60;99.90;;;;;;5051364;28;20036;-55
2022/04/01 12:02:53;;;;;;;6.95;3.88;;;3.60;99.90;;;;;;5052609;28;20025;-58
2022/04/01 12:05:19;;;;;;;;;;;3.70;99.90;;;;;;5053083;28;20060;-57
2022/04/01 12:10:50;;;;;;;6.03;4.00;;;3.80;99.90;;;;;;5056718;28;20083;-53
2022/04/01 12:13:15;;;;;;;7.28;4.78;;;3.50;99.90;;;;;;5056358;28;20037;-48
2022/04/01 12:15:48;;;;;;;7.57;4.30;;;3.50;99.90;;;;;;5055681;28;20027;-48
2022/04/01 12:18:21;;;;;;;5.50;3.97;;;3.70;99.90;;;;;;5055118;28;20025;-50
2022/04/01 12:20:49;;;;;;;5.75;3.88;;;3.50;99.90;;;;;;5055803;28;20107;-54
2022/04/01 12:23:17;;;;;;;5.93;4.28;;;3.60;99.90;;;;;;5056289;28;20052;-48
2022/04/01 12:25:44;;;;;;;6.97;4.45;;;3.70;99.90;;;;;;5056273;28;20029;-48
2022/04/01 12:28:12;;;;;;;5.38;3.85;;;3.50;99.90;;;;;;5054896;28;20079;-55
2022/04/01 12:30:48;;;;;;;6.05;3.72;;;3.60;99.90;;;;;;5055658;28;20025;-50
2022/04/01 12:33:30;;;;;;;7.00;4.15;;;3.80;99.90;;;;;;5056157;28;20017;-48
2022/04/01 12:35:57;;;;;;;;;;;3.90;99.90;;;;;;5055989;28;20364;-47
2022/04/01 12:38:23;;;;;;;4.82;3.60;;;4.30;99.90;;;;;;5054571;28;19930;-50
2022/04/01 12:40:51;;;;;;;7.20;3.80;;;4.10;99.90;;;;;;5054464;28;20033;-55
2022/04/01 12:43:40;;;;;;;4.15;3.42;;;4.10;99.90;;;;;;5054699;28;20032;-53
2022/04/01 12:46:15;;;;;;;8.40;4.55;;;3.70;99.90;;;;;;5054388;28;20384;-55
2022/04/01 12:48:53;;;;;;;6.50;4.22;;;3.50;99.90;;;;;;5056117;28;20021;-58
2022/04/01 12:51:22;;;;;;;6.70;4.70;;;3.50;99.90;;;;;;5054464;28;20104;-49
2022/04/01 12:54:04;;;;;;;8.15;4.45;;;3.60;99.90;;;;;;5055245;28;20021;-53
2022/04/01 12:56:31;;;;;;;7.78;4.90;;;3.30;99.90;;;;;;5055831;28;20024;-55
2022/04/01 12:58:59;;;;;;;7.13;4.75;;;3.70;99.90;;;;;;5054272;28;20033;-53
2022/04/01 13:01:30;;;;;;;7.07;4.70;;;3.50;99.90;;;;;;5055447;28;20154;-49
2022/04/01 13:03:56;;;;;;;8.18;4.78;;;3.40;99.90;;;;;;5055551;28;20025;-58
2022/04/01 13:06:25;;;;;;;7.25;4.35;;;3.50;99.90;;;;;;5054230;28;20029;-54
2022/04/01 13:09:09;;;;;;;8.50;5.15;;;3.30;99.90;;;;;;5055263;28;20017;-60
2022/04/01 13:11:35;;;;;;;7.93;4.95;;;3.80;99.90;;;;;;5055532;28;20029;-51
2022/04/01 13:14:02;;;;;;;8.02;5.30;;;3.40;99.90;;;;;;5054332;28;20029;-51
2022/04/01 13:16:40;;;;;;;7.32;4.38;;;3.50;99.90;;;;;;5055206;28;20391;-48
2022/04/01 13:19:19;;;;;;;6.00;4.75;;;3.70;99.90;;;;;;5054606;28;20387;-53